sensor_id;sensor_type;location;lat;lon;timestamp;pressure;altitude;pressure_sealevel;temperature;humidity
56600;BME280;51832;48.152;11.530;2023-02-10T00:00:41;97104.38;;;3.49;54.03
56600;BME280;51832;48.152;11.530;2023-02-10T00:05:41;97118.75;;;3.72;53.23
56600;BME280;51832;48.152;11.530;2023-02-10T00:10:42;97119.84;;;3.89;53.15
56600;BME280;51832;48.152;11.530;2023-02-10T00:15:42;97119.31;;;3.76;53.30
56600;BME280;51832;48.152;11.530;2023-02-10T00:20:43;97131.16;;;3.01;55.37
56600;BME280;51832;48.152;11.530;2023-02-10T00:25:44;97128.59;;;3.11;55.39
56600;BME280;51832;48.152;11.530;2023-02-10T00:30:44;97130.25;;;3.12;56.29
56600;BME280;51832;48.152;11.530;2023-02-10T00:35:45;97154.28;;;2.95;56.35
56600;BME280;51832;48.152;11.530;2023-02-10T00:40:45;97153.75;;;2.30;59.35
56600;BME280;51832;48.152;11.530;2023-02-10T00:45:46;97158.38;;;2.27;60.14
56600;BME280;51832;48.152;11.530;2023-02-10T00:50:46;97162.16;;;2.43;59.94
56600;BME280;51832;48.152;11.530;2023-02-10T00:55:47;97159.16;;;2.48;59.86
56600;BME280;51832;48.152;11.530;2023-02-10T01:00:47;97158.34;;;2.17;61.26
56600;BME280;51832;48.152;11.530;2023-02-10T01:05:48;97166.22;;;1.95;62.70
56600;BME280;51832;48.152;11.530;2023-02-10T01:10:49;97167.06;;;2.16;61.73
56600;BME280;51832;48.152;11.530;2023-02-10T01:15:49;97168.22;;;2.54;60.68
56600;BME280;51832;48.152;11.530;2023-02-10T01:20:50;97183.22;;;2.50;59.65
56600;BME280;51832;48.152;11.530;2023-02-10T01:25:51;97173.66;;;2.50;59.72
56600;BME280;51832;48.152;11.530;2023-02-10T01:30:51;97161.47;;;2.41;60.05
56600;BME280;51832;48.152;11.530;2023-02-10T01:35:52;97174.94;;;2.56;59.75
56600;BME280;51832;48.152;11.530;2023-02-10T01:40:52;97174.41;;;2.62;58.91
56600;BME280;51832;48.152;11.530;2023-02-10T01:45:53;97184.50;;;2.35;59.35
56600;BME280;51832;48.152;11.530;2023-02-10T01:51:03;97190.31;;;2.18;59.67
56600;BME280;51832;48.152;11.530;2023-02-10T01:56:05;97196.44;;;2.37;59.21
56600;BME280;51832;48.152;11.530;2023-02-10T02:01:05;97193.16;;;2.96;57.22
56600;BME280;51832;48.152;11.530;2023-02-10T02:06:07;97192.72;;;2.61;57.97
56600;BME280;51832;48.152;11.530;2023-02-10T02:32:52;97216.94;;;2.20;59.17
56600;BME280;51832;48.152;11.530;2023-02-10T02:37:54;97211.25;;;1.84;60.33
56600;BME280;51832;48.152;11.530;2023-02-10T02:42:55;97214.53;;;2.07;59.63
56600;BME280;51832;48.152;11.530;2023-02-10T02:48:17;97223.44;;;2.04;60.17
56600;BME280;51832;48.152;11.530;2023-02-10T02:54:30;97222.16;;;1.67;60.80
56600;BME280;51832;48.152;11.530;2023-02-10T03:04:07;97216.88;;;1.89;59.69
56600;BME280;51832;48.152;11.530;2023-02-10T03:09:08;97205.47;;;1.81;59.69
56600;BME280;51832;48.152;11.530;2023-02-10T03:14:09;97205.16;;;1.74;60.38
56600;BME280;51832;48.152;11.530;2023-02-10T03:19:10;97220.38;;;1.67;60.36
56600;BME280;51832;48.152;11.530;2023-02-10T03:24:11;97215.53;;;1.74;59.85
56600;BME280;51832;48.152;11.530;2023-02-10T03:29:13;97216.00;;;2.00;59.01
56600;BME280;51832;48.152;11.530;2023-02-10T03:34:13;97216.88;;;1.89;59.27
56600;BME280;51832;48.152;11.530;2023-02-10T03:39:14;97227.09;;;1.70;60.19
56600;BME280;51832;48.152;11.530;2023-02-10T03:44:14;97225.38;;;1.91;58.59
56600;BME280;51832;48.152;11.530;2023-02-10T03:49:14;97234.75;;;1.71;59.77
56600;BME280;51832;48.152;11.530;2023-02-10T03:54:15;97237.19;;;1.41;60.49
56600;BME280;51832;48.152;11.530;2023-02-10T03:59:15;97230.97;;;1.32;60.49
56600;BME280;51832;48.152;11.530;2023-02-10T04:04:16;97215.91;;;1.69;59.44
56600;BME280;51832;48.152;11.530;2023-02-10T04:09:16;97225.22;;;1.93;59.00
56600;BME280;51832;48.152;11.530;2023-02-10T04:14:17;97229.88;;;1.78;58.83
56600;BME280;51832;48.152;11.530;2023-02-10T04:19:17;97233.81;;;2.04;58.45
56600;BME280;51832;48.152;11.530;2023-02-10T04:24:18;97235.00;;;2.00;58.47
56600;BME280;51832;48.152;11.530;2023-02-10T04:29:18;97232.72;;;2.07;57.67
56600;BME280;51832;48.152;11.530;2023-02-10T04:34:19;97244.94;;;1.95;57.40
56600;BME280;51832;48.152;11.530;2023-02-10T04:39:19;97242.91;;;2.20;57.04
56600;BME280;51832;48.152;11.530;2023-02-10T04:44:20;97248.56;;;2.04;57.91
56600;BME280;51832;48.152;11.530;2023-02-10T04:49:20;97253.72;;;2.15;56.73
56600;BME280;51832;48.152;11.530;2023-02-10T04:54:20;97254.00;;;2.01;57.43
56600;BME280;51832;48.152;11.530;2023-02-10T04:59:21;97254.28;;;1.87;57.75
56600;BME280;51832;48.152;11.530;2023-02-10T05:04:21;97247.28;;;2.19;56.73
56600;BME280;51832;48.152;11.530;2023-02-10T05:09:22;97251.34;;;1.91;58.67
56600;BME280;51832;48.152;11.530;2023-02-10T05:14:22;97249.13;;;2.07;57.36
56600;BME280;51832;48.152;11.530;2023-02-10T05:19:23;97267.94;;;2.21;57.08
56600;BME280;51832;48.152;11.530;2023-02-10T05:24:38;97269.59;;;2.22;57.16
56600;BME280;51832;48.152;11.530;2023-02-10T05:29:38;97280.81;;;2.22;56.94
56600;BME280;51832;48.152;11.530;2023-02-10T05:34:39;97289.38;;;2.34;56.41
56600;BME280;51832;48.152;11.530;2023-02-10T05:39:39;97284.69;;;2.28;56.72
56600;BME280;51832;48.152;11.530;2023-02-10T05:44:40;97294.97;;;2.29;56.59
56600;BME280;51832;48.152;11.530;2023-02-10T05:49:40;97292.41;;;2.18;57.32
56600;BME280;51832;48.152;11.530;2023-02-10T05:54:41;97304.13;;;2.12;57.93
56600;BME280;51832;48.152;11.530;2023-02-10T05:59:41;97303.28;;;2.12;57.11
56600;BME280;51832;48.152;11.530;2023-02-10T06:04:42;97310.88;;;2.04;57.58
56600;BME280;51832;48.152;11.530;2023-02-10T06:09:42;97315.59;;;1.99;58.68
56600;BME280;51832;48.152;11.530;2023-02-10T06:14:44;97314.38;;;2.14;58.05
56600;BME280;51832;48.152;11.530;2023-02-10T06:19:44;97324.94;;;2.01;58.00
56600;BME280;51832;48.152;11.530;2023-02-10T06:24:45;97321.44;;;1.80;58.08
56600;BME280;51832;48.152;11.530;2023-02-10T06:29:45;97326.19;;;1.75;58.52
56600;BME280;51832;48.152;11.530;2023-02-10T06:34:46;97335.38;;;1.68;58.92
56600;BME280;51832;48.152;11.530;2023-02-10T06:39:47;97338.56;;;1.71;59.24
56600;BME280;51832;48.152;11.530;2023-02-10T06:44:47;97336.00;;;1.60;58.51
56600;BME280;51832;48.152;11.530;2023-02-10T06:49:48;97347.53;;;1.67;58.26
56600;BME280;51832;48.152;11.530;2023-02-10T06:54:48;97353.53;;;1.68;57.78
56600;BME280;51832;48.152;11.530;2023-02-10T06:59:49;97365.34;;;1.61;58.32
56600;BME280;51832;48.152;11.530;2023-02-10T07:04:49;97367.81;;;1.73;57.49
56600;BME280;51832;48.152;11.530;2023-02-10T07:09:49;97376.75;;;1.81;57.26
56600;BME280;51832;48.152;11.530;2023-02-10T07:14:53;97368.75;;;1.72;56.18
56600;BME280;51832;48.152;11.530;2023-02-10T07:19:53;97388.63;;;2.05;56.07
56600;BME280;51832;48.152;11.530;2023-02-10T07:24:54;97382.47;;;2.18;56.34
56600;BME280;51832;48.152;11.530;2023-02-10T07:29:54;97387.97;;;2.35;54.73
56600;BME280;51832;48.152;11.530;2023-02-10T07:34:55;97390.38;;;2.48;55.15
56600;BME280;51832;48.152;11.530;2023-02-10T07:39:55;97389.91;;;2.54;54.71
56600;BME280;51832;48.152;11.530;2023-02-10T07:44:56;97395.13;;;2.96;53.13
56600;BME280;51832;48.152;11.530;2023-02-10T07:49:56;97392.59;;;3.05;53.00
56600;BME280;51832;48.152;11.530;2023-02-10T07:54:57;97401.09;;;3.07;52.57
56600;BME280;51832;48.152;11.530;2023-02-10T07:59:58;97410.69;;;3.07;53.08
56600;BME280;51832;48.152;11.530;2023-02-10T08:04:59;97411.63;;;3.06;53.46
56600;BME280;51832;48.152;11.530;2023-02-10T08:09:59;97416.53;;;3.50;51.86
56600;BME280;51832;48.152;11.530;2023-02-10T08:15:00;97417.25;;;3.52;52.21
56600;BME280;51832;48.152;11.530;2023-02-10T08:20:00;97412.59;;;3.56;52.08
56600;BME280;51832;48.152;11.530;2023-02-10T08:25:01;97412.28;;;3.80;51.94
56600;BME280;51832;48.152;11.530;2023-02-10T08:30:03;97413.72;;;3.93;50.98
56600;BME280;51832;48.152;11.530;2023-02-10T08:35:05;97411.47;;;4.39;49.64
56600;BME280;51832;48.152;11.530;2023-02-10T08:40:06;97416.69;;;4.39;48.65
56600;BME280;51832;48.152;11.530;2023-02-10T08:45:07;97415.31;;;4.44;48.51
56600;BME280;51832;48.152;11.530;2023-02-10T08:50:07;97417.41;;;4.50;48.70
56600;BME280;51832;48.152;11.530;2023-02-10T08:55:08;97413.28;;;4.48;48.18
56600;BME280;51832;48.152;11.530;2023-02-10T09:00:11;97421.38;;;4.64;47.98
56600;BME280;51832;48.152;11.530;2023-02-10T09:05:12;97417.06;;;5.40;46.05
56600;BME280;51832;48.152;11.530;2023-02-10T09:10:14;97417.31;;;5.37;46.20
56600;BME280;51832;48.152;11.530;2023-02-10T09:15:15;97416.75;;;5.90;44.80
56600;BME280;51832;48.152;11.530;2023-02-10T09:20:16;97436.44;;;5.75;46.02
56600;BME280;51832;48.152;11.530;2023-02-10T09:25:16;97431.78;;;5.22;46.55
56600;BME280;51832;48.152;11.530;2023-02-10T09:30:17;97424.69;;;5.05;47.78
56600;BME280;51832;48.152;11.530;2023-02-10T09:35:18;97431.38;;;5.07;48.91
56600;BME280;51832;48.152;11.530;2023-02-10T09:40:26;97443.84;;;5.42;48.31
56600;BME280;51832;48.152;11.530;2023-02-10T09:45:33;97446.59;;;5.87;47.08
56600;BME280;51832;48.152;11.530;2023-02-10T09:56:00;97451.69;;;6.26;45.95
56600;BME280;51832;48.152;11.530;2023-02-10T10:01:09;97453.19;;;5.91;47.09
56600;BME280;51832;48.152;11.530;2023-02-10T10:06:29;97446.63;;;5.78;47.44
56600;BME280;51832;48.152;11.530;2023-02-10T10:11:41;97439.06;;;5.28;48.72
56600;BME280;51832;48.152;11.530;2023-02-10T10:22:27;97439.81;;;6.04;47.19
56600;BME280;51832;48.152;11.530;2023-02-10T10:32:44;97423.41;;;6.12;47.16
56600;BME280;51832;48.152;11.530;2023-02-10T10:37:44;97413.91;;;6.38;46.32
56600;BME280;51832;48.152;11.530;2023-02-10T10:42:57;97415.03;;;6.71;45.44
56600;BME280;51832;48.152;11.530;2023-02-10T10:48:05;97413.91;;;6.38;46.18
56600;BME280;51832;48.152;11.530;2023-02-10T10:53:17;97415.41;;;6.40;46.21
56600;BME280;51832;48.152;11.530;2023-02-10T10:58:36;97403.47;;;6.56;45.59
56600;BME280;51832;48.152;11.530;2023-02-10T11:03:37;97388.13;;;6.96;45.03
56600;BME280;51832;48.152;11.530;2023-02-10T11:09:16;97377.25;;;7.09;44.57
56600;BME280;51832;48.152;11.530;2023-02-10T11:14:23;97359.63;;;7.71;43.73
56600;BME280;51832;48.152;11.530;2023-02-10T11:19:33;97361.50;;;7.95;42.73
56600;BME280;51832;48.152;11.530;2023-02-10T11:24:34;97349.59;;;7.66;43.11
56600;BME280;51832;48.152;11.530;2023-02-10T11:29:40;97347.09;;;8.33;41.20
56600;BME280;51832;48.152;11.530;2023-02-10T11:34:46;97351.28;;;7.41;43.50
56600;BME280;51832;48.152;11.530;2023-02-10T11:39:49;97334.28;;;8.38;41.11
56600;BME280;51832;48.152;11.530;2023-02-10T11:50:21;97328.06;;;8.39;40.78
56600;BME280;51832;48.152;11.530;2023-02-10T11:55:34;97325.41;;;9.20;39.25
56600;BME280;51832;48.152;11.530;2023-02-10T12:21:39;97314.50;;;9.55;37.39
56600;BME280;51832;48.152;11.530;2023-02-10T12:43:38;97294.16;;;10.42;34.20
56600;BME280;51832;48.152;11.530;2023-02-10T12:54:42;97291.78;;;10.78;33.93
56600;BME280;51832;48.152;11.530;2023-02-10T12:59:56;97287.47;;;11.15;32.80
56600;BME280;51832;48.152;11.530;2023-02-10T13:05:03;97282.31;;;10.84;33.97
56600;BME280;51832;48.152;11.530;2023-02-10T13:15:24;97281.28;;;11.08;32.44
56600;BME280;51832;48.152;11.530;2023-02-10T13:31:25;97269.56;;;11.69;31.04
56600;BME280;51832;48.152;11.530;2023-02-10T13:36:29;97276.94;;;11.73;29.71
56600;BME280;51832;48.152;11.530;2023-02-10T13:41:34;97278.09;;;11.71;28.92
56600;BME280;51832;48.152;11.530;2023-02-10T13:46:41;97271.50;;;11.46;29.96
56600;BME280;51832;48.152;11.530;2023-02-10T13:51:42;97276.31;;;11.86;29.52
56600;BME280;51832;48.152;11.530;2023-02-10T14:08:30;97262.97;;;13.63;26.43
56600;BME280;51832;48.152;11.530;2023-02-10T14:13:33;97248.16;;;15.93;24.60
56600;BME280;51832;48.152;11.530;2023-02-10T14:18:43;97261.69;;;17.11;22.64
56600;BME280;51832;48.152;11.530;2023-02-10T14:23:53;97256.47;;;20.30;19.51
56600;BME280;51832;48.152;11.530;2023-02-10T14:28:56;97264.03;;;22.27;17.42
56600;BME280;51832;48.152;11.530;2023-02-10T14:34:00;97257.53;;;23.04;16.93
56600;BME280;51832;48.152;11.530;2023-02-10T14:39:02;97270.50;;;25.09;15.81
56600;BME280;51832;48.152;11.530;2023-02-10T14:44:05;97270.50;;;24.01;15.95
56600;BME280;51832;48.152;11.530;2023-02-10T14:49:10;97267.06;;;23.22;17.01
56600;BME280;51832;48.152;11.530;2023-02-10T14:54:37;97264.44;;;22.95;17.22
56600;BME280;51832;48.152;11.530;2023-02-10T14:59:41;97257.47;;;24.40;16.28
56600;BME280;51832;48.152;11.530;2023-02-10T15:04:44;97259.16;;;24.92;15.42
56600;BME280;51832;48.152;11.530;2023-02-10T15:09:45;97256.47;;;25.18;15.43
56600;BME280;51832;48.152;11.530;2023-02-10T15:15:05;97258.88;;;24.89;15.47
56600;BME280;51832;48.152;11.530;2023-02-10T15:30:29;97268.44;;;23.66;16.81
56600;BME280;51832;48.152;11.530;2023-02-10T15:35:29;97269.13;;;23.47;17.07
56600;BME280;51832;48.152;11.530;2023-02-10T15:40:30;97277.13;;;21.25;18.81
56600;BME280;51832;48.152;11.530;2023-02-10T15:45:31;97274.84;;;21.17;19.07
56600;BME280;51832;48.152;11.530;2023-02-10T15:50:35;97268.94;;;21.32;19.20
56600;BME280;51832;48.152;11.530;2023-02-10T15:55:39;97270.81;;;20.12;19.69
56600;BME280;51832;48.152;11.530;2023-02-10T16:00:40;97271.41;;;19.63;20.80
56600;BME280;51832;48.152;11.530;2023-02-10T16:05:44;97285.31;;;19.18;20.93
56600;BME280;51832;48.152;11.530;2023-02-10T16:10:44;97279.69;;;18.43;21.59
56600;BME280;51832;48.152;11.530;2023-02-10T16:15:46;97295.16;;;16.37;24.16
56600;BME280;51832;48.152;11.530;2023-02-10T16:20:50;97300.53;;;15.59;25.41
56600;BME280;51832;48.152;11.530;2023-02-10T16:25:50;97304.25;;;14.60;27.15
56600;BME280;51832;48.152;11.530;2023-02-10T16:30:51;97306.94;;;13.71;28.74
56600;BME280;51832;48.152;11.530;2023-02-10T16:35:52;97307.50;;;13.04;29.21
56600;BME280;51832;48.152;11.530;2023-02-10T16:40:52;97314.00;;;12.59;30.44
56600;BME280;51832;48.152;11.530;2023-02-10T16:45:53;97321.63;;;12.11;31.04
56600;BME280;51832;48.152;11.530;2023-02-10T16:50:53;97325.41;;;11.87;31.55
56600;BME280;51832;48.152;11.530;2023-02-10T16:55:54;97321.97;;;11.87;31.91
56600;BME280;51832;48.152;11.530;2023-02-10T17:00:55;97334.16;;;11.88;31.62
56600;BME280;51832;48.152;11.530;2023-02-10T17:05:55;97342.47;;;12.06;31.66
56600;BME280;51832;48.152;11.530;2023-02-10T17:10:56;97338.94;;;11.55;32.83
56600;BME280;51832;48.152;11.530;2023-02-10T17:15:56;97333.97;;;11.22;33.64
56600;BME280;51832;48.152;11.530;2023-02-10T17:20:57;97340.00;;;11.31;33.86
56600;BME280;51832;48.152;11.530;2023-02-10T17:25:57;97343.81;;;11.28;33.86
56600;BME280;51832;48.152;11.530;2023-02-10T17:30:58;97352.69;;;11.13;33.94
56600;BME280;51832;48.152;11.530;2023-02-10T17:35:58;97346.06;;;11.17;34.26
56600;BME280;51832;48.152;11.530;2023-02-10T17:40:59;97348.50;;;10.58;35.77
56600;BME280;51832;48.152;11.530;2023-02-10T17:46:00;97361.66;;;10.81;35.53
56600;BME280;51832;48.152;11.530;2023-02-10T17:51:11;97358.06;;;10.59;35.81
56600;BME280;51832;48.152;11.530;2023-02-10T17:56:12;97368.09;;;10.55;36.48
56600;BME280;51832;48.152;11.530;2023-02-10T18:01:20;97367.34;;;10.47;36.77
56600;BME280;51832;48.152;11.530;2023-02-10T18:06:22;97379.34;;;10.18;37.55
56600;BME280;51832;48.152;11.530;2023-02-10T18:11:23;97372.91;;;9.74;38.21
56600;BME280;51832;48.152;11.530;2023-02-10T18:16:24;97382.06;;;9.86;37.52
56600;BME280;51832;48.152;11.530;2023-02-10T18:21:24;97374.06;;;9.79;37.71
56600;BME280;51832;48.152;11.530;2023-02-10T18:26:25;97363.53;;;9.71;37.52
56600;BME280;51832;48.152;11.530;2023-02-10T18:31:25;97366.69;;;9.67;37.61
56600;BME280;51832;48.152;11.530;2023-02-10T18:36:26;97355.66;;;9.71;37.83
56600;BME280;51832;48.152;11.530;2023-02-10T18:41:26;97357.41;;;9.40;38.60
56600;BME280;51832;48.152;11.530;2023-02-10T18:46:27;97356.25;;;9.42;38.26
56600;BME280;51832;48.152;11.530;2023-02-10T18:51:27;97349.53;;;9.32;38.28
56600;BME280;51832;48.152;11.530;2023-02-10T18:56:30;97352.31;;;9.30;38.38
56600;BME280;51832;48.152;11.530;2023-02-10T19:01:30;97357.13;;;9.10;38.57
56600;BME280;51832;48.152;11.530;2023-02-10T19:06:32;97337.09;;;9.09;39.25
56600;BME280;51832;48.152;11.530;2023-02-10T19:11:33;97350.06;;;8.70;40.41
56600;BME280;51832;48.152;11.530;2023-02-10T19:16:33;97356.78;;;8.81;40.03
56600;BME280;51832;48.152;11.530;2023-02-10T19:21:34;97341.69;;;8.75;40.24
56600;BME280;51832;48.152;11.530;2023-02-10T19:26:34;97356.13;;;8.63;41.09
56600;BME280;51832;48.152;11.530;2023-02-10T19:31:35;97360.03;;;8.42;41.52
56600;BME280;51832;48.152;11.530;2023-02-10T19:36:35;97355.38;;;8.28;42.32
56600;BME280;51832;48.152;11.530;2023-02-10T19:41:36;97369.69;;;8.34;42.20
56600;BME280;51832;48.152;11.530;2023-02-10T19:46:36;97372.72;;;8.21;42.80
56600;BME280;51832;48.152;11.530;2023-02-10T19:51:37;97368.28;;;8.05;43.12
56600;BME280;51832;48.152;11.530;2023-02-10T19:56:37;97362.22;;;8.13;43.16
56600;BME280;51832;48.152;11.530;2023-02-10T20:01:39;97362.03;;;7.98;43.37
56600;BME280;51832;48.152;11.530;2023-02-10T20:06:42;97367.72;;;7.94;43.49
56600;BME280;51832;48.152;11.530;2023-02-10T20:11:43;97377.00;;;7.80;44.16
56600;BME280;51832;48.152;11.530;2023-02-10T20:16:44;97384.16;;;7.70;44.16
56600;BME280;51832;48.152;11.530;2023-02-10T20:21:47;97378.91;;;7.62;44.40
56600;BME280;51832;48.152;11.530;2023-02-10T20:26:48;97370.69;;;7.57;44.28
56600;BME280;51832;48.152;11.530;2023-02-10T20:31:48;97374.41;;;7.20;44.85
56600;BME280;51832;48.152;11.530;2023-02-10T20:36:49;97367.50;;;7.19;44.73
56600;BME280;51832;48.152;11.530;2023-02-10T20:41:49;97369.75;;;7.14;45.57
56600;BME280;51832;48.152;11.530;2023-02-10T20:46:50;97382.66;;;7.07;46.10
56600;BME280;51832;48.152;11.530;2023-02-10T20:51:51;97388.38;;;7.11;45.72
56600;BME280;51832;48.152;11.530;2023-02-10T20:56:52;97389.31;;;7.54;44.95
56600;BME280;51832;48.152;11.530;2023-02-10T21:01:52;97380.72;;;7.35;45.53
56600;BME280;51832;48.152;11.530;2023-02-10T21:06:52;97391.44;;;7.50;44.90
56600;BME280;51832;48.152;11.530;2023-02-10T21:11:54;97386.41;;;7.31;45.07
56600;BME280;51832;48.152;11.530;2023-02-10T21:16:54;97376.75;;;7.31;45.10
56600;BME280;51832;48.152;11.530;2023-02-10T21:21:55;97373.03;;;6.72;46.18
56600;BME280;51832;48.152;11.530;2023-02-10T21:26:55;97374.16;;;7.13;44.98
56600;BME280;51832;48.152;11.530;2023-02-10T21:31:56;97360.72;;;6.83;45.80
56600;BME280;51832;48.152;11.530;2023-02-10T21:36:57;97356.09;;;6.41;47.11
56600;BME280;51832;48.152;11.530;2023-02-10T21:42:01;97352.25;;;6.00;48.37
56600;BME280;51832;48.152;11.530;2023-02-10T21:47:05;97348.72;;;5.54;49.47
56600;BME280;51832;48.152;11.530;2023-02-10T21:52:07;97341.41;;;5.58;48.93
56600;BME280;51832;48.152;11.530;2023-02-10T21:57:10;97339.81;;;6.02;48.02
56600;BME280;51832;48.152;11.530;2023-02-10T22:02:13;97330.72;;;5.79;48.40
56600;BME280;51832;48.152;11.530;2023-02-10T22:07:14;97317.44;;;5.72;48.28
56600;BME280;51832;48.152;11.530;2023-02-10T22:12:15;97329.19;;;5.58;49.65
56600;BME280;51832;48.152;11.530;2023-02-10T22:17:15;97328.72;;;5.72;48.52
56600;BME280;51832;48.152;11.530;2023-02-10T22:22:16;97319.56;;;5.86;48.21
56600;BME280;51832;48.152;11.530;2023-02-10T22:27:16;97310.66;;;5.79;48.28
56600;BME280;51832;48.152;11.530;2023-02-10T22:32:16;97320.19;;;5.70;48.49
56600;BME280;51832;48.152;11.530;2023-02-10T22:37:17;97322.88;;;5.14;49.93
56600;BME280;51832;48.152;11.530;2023-02-10T22:42:17;97321.13;;;5.05;50.32
56600;BME280;51832;48.152;11.530;2023-02-10T22:47:18;97316.06;;;4.94;50.65
56600;BME280;51832;48.152;11.530;2023-02-10T22:52:18;97327.28;;;5.14;50.88
56600;BME280;51832;48.152;11.530;2023-02-10T22:57:19;97321.94;;;5.15;50.79
56600;BME280;51832;48.152;11.530;2023-02-10T23:02:19;97320.41;;;4.47;52.91
56600;BME280;51832;48.152;11.530;2023-02-10T23:07:20;97321.06;;;4.68;52.67
56600;BME280;51832;48.152;11.530;2023-02-10T23:12:20;97315.16;;;4.66;52.67
56600;BME280;51832;48.152;11.530;2023-02-10T23:17:21;97310.78;;;4.57;53.05
56600;BME280;51832;48.152;11.530;2023-02-10T23:22:21;97310.03;;;4.93;51.70
56600;BME280;51832;48.152;11.530;2023-02-10T23:27:23;97314.78;;;5.17;51.22
56600;BME280;51832;48.152;11.530;2023-02-10T23:32:25;97308.84;;;5.25;50.62
56600;BME280;51832;48.152;11.530;2023-02-10T23:37:26;97313.41;;;5.13;50.42
56600;BME280;51832;48.152;11.530;2023-02-10T23:42:26;97306.69;;;5.11;49.64
56600;BME280;51832;48.152;11.530;2023-02-10T23:47:27;97318.63;;;5.13;49.74
56600;BME280;51832;48.152;11.530;2023-02-10T23:52:27;97324.03;;;5.02;49.80
56600;BME280;51832;48.152;11.530;2023-02-10T23:57:28;97319.72;;;5.11;50.04
